Blue Star 1 — SWET — position and weather

sailwx.info

Track history (hours):
 
Tides and Currents Weather Stations Pressure Air Temp Water Temp Dewpoint Dewpoint Depression Visibility Wind Speed Wind Dir Waves Ship Positions

Blue Star 1

Last reported at 2014-Dec-19 19:32 UTC. Time now 2014-Dec-20 11:33 UTC.
Position N 37°38' E 023°54'.

Length 176 m; draft 6.5 m.

Type: Passenger vessel. MMSI: 239710000.

Date/timePositionNaut miles runAvg speedWind from/ knotsBaromVisibWave heightAir tempDewpointWater temp
2014-Dec-19 19:32N 37°38' E 023°54'1717.6
2014-Dec-19 18:33N 37°49' E 023°37'7 7.4
2014-Dec-19 17:33N 37°56' E 023°38'0 0.0
2014-Dec-19 16:34N 37°56' E 023°38'1312.6
2014-Dec-19 15:33N 37°45' E 023°43'4621.7
2014-Dec-19 13:27N 37°58' E 024°39'41 2.3
2014-Dec-18 19:31N 37°37' E 023°54'1717.6
2014-Dec-18 18:33N 37°49' E 023°38'8 8.0
2014-Dec-18 17:33N 37°56' E 023°38'0 0.4
2014-Dec-18 16:33N 37°56' E 023°37'2322.4
2014-Dec-18 15:33N 37°38' E 023°55'6 0.3
2014-Dec-17 19:29N 37°34' E 023°49'1819.0
2014-Dec-17 18:33N 37°49' E 023°37'7 6.9
2014-Dec-17 17:31N 37°56' E 023°38'0 0.0
2014-Dec-17 16:31N 37°56' E 023°38'0 0.0
2014-Dec-17 15:31N 37°56' E 023°38'0 0.0
2014-Dec-17 14:31N 37°56' E 023°38'0 0.0
2014-Dec-17 13:31N 37°56' E 023°38'0 0.0
2014-Dec-17 12:28N 37°56' E 023°38'0 0.0
2014-Dec-17 11:33N 37°56' E 023°38'0 0.0
2014-Dec-17 10:33N 37°56' E 023°38'0 0.0
2014-Dec-17 09:18N 37°56' E 023°38'0 0.0
2014-Dec-17 08:33N 37°56' E 023°38'0 0.0
2014-Dec-17 07:33N 37°56' E 023°38'0 0.0
2014-Dec-17 06:33N 37°56' E 023°38'0 0.0
2014-Dec-17 05:33N 37°56' E 023°38'7 7.5
2014-Dec-17 04:33N 37°49' E 023°41'14 0.4
2014-Dec-15 19:27N 37°38' E 023°51'1618.0
2014-Dec-15 18:33N 37°50' E 023°37'7 6.8
2014-Dec-15 17:33N 37°56' E 023°38'0 0.0
2014-Dec-15 16:33N 37°56' E 023°38'0 0.0
2014-Dec-15 15:33N 37°56' E 023°38'0 0.0
2014-Dec-15 14:33N 37°56' E 023°38'0 0.0
2014-Dec-15 13:33N 37°56' E 023°38'0 0.0
2014-Dec-15 12:33N 37°56' E 023°38'0 0.0
2014-Dec-15 11:33N 37°56' E 023°38'0 0.0
2014-Dec-15 10:33N 37°56' E 023°38'0 0.0
2014-Dec-15 09:33N 37°56' E 023°38'0 0.0
2014-Dec-15 08:33N 37°56' E 023°38'0 0.0
2014-Dec-15 07:33N 37°56' E 023°38'0 0.0
2014-Dec-15 06:33N 37°56' E 023°38'0 0.0
2014-Dec-15 05:33N 37°56' E 023°38'6 5.9
2014-Dec-15 04:34N 37°51' E 023°40'  
2014-Dec-12 19:30N 37°37' E 023°54'1617.5
2014-Dec-12 18:34N 37°48' E 023°38'8 8.1
2014-Dec-12 17:32N 37°56' E 023°38'0 0.0
2014-Dec-12 16:32N 37°56' E 023°38'1414.6
2014-Dec-12 15:34N 37°43' E 023°45'8 0.4
2014-Dec-11 19:30N 37°38' E 023°53'1617.0
2014-Dec-11 18:33N 37°49' E 023°38'8 7.9
2014-Dec-11 17:33N 37°56' E 023°38'0 0.0
2014-Dec-11 16:31N 37°56' E 023°38'1211.9
2014-Dec-11 15:33N 37°46' E 023°43'7 0.3
2014-Dec-10 19:06N 37°39' E 023°44'1119.8
2014-Dec-10 18:33N 37°48' E 023°38'8 8.0
2014-Dec-10 17:33N 37°56' E 023°38'0 0.0
2014-Dec-10 16:32N 37°56' E 023°38'0 0.0
2014-Dec-10 15:32N 37°56' E 023°38'0 0.0
2014-Dec-10 14:32N 37°56' E 023°38'0 0.0
2014-Dec-10 13:29N 37°56' E 023°38'0 0.0
2014-Dec-10 12:32N 37°56' E 023°38'0 0.0
2014-Dec-10 11:32N 37°56' E 023°38'0 0.0
2014-Dec-10 10:32N 37°56' E 023°38'0 0.0
2014-Dec-10 09:32N 37°56' E 023°38'0 0.0
2014-Dec-10 08:32N 37°56' E 023°38'0 0.0
2014-Dec-10 07:31N 37°56' E 023°38'0 0.0
2014-Dec-10 06:31N 37°56' E 023°38'0 0.0
2014-Dec-10 05:31N 37°56' E 023°38'1 1.0
2014-Dec-10 04:34N 37°56' E 023°37'2221.8
2014-Dec-10 03:33N 37°38' E 023°54'  
Track history (hours):
 
Tides and Currents Weather Stations Pressure Air Temp Water Temp Dewpoint Dewpoint Depression Visibility Wind Speed Wind Dir Waves Ship Positions

Blue Star 1

Last reported at 2014-Dec-19 19:32 UTC. Time now 2014-Dec-20 11:33 UTC.
Position N 37°38' E 023°54'.

Length 176 m; draft 6.5 m.

Type: Passenger vessel. MMSI: 239710000.

Date/timePositionNaut miles runAvg speedWind from/ knotsBaromVisibWave heightAir tempDewpointWater temp
2014-Dec-19 19:32N 37°38' E 023°54'1717.6
2014-Dec-19 18:33N 37°49' E 023°37'7 7.4
2014-Dec-19 17:33N 37°56' E 023°38'0 0.0
2014-Dec-19 16:34N 37°56' E 023°38'1312.6
2014-Dec-19 15:33N 37°45' E 023°43'4621.7
2014-Dec-19 13:27N 37°58' E 024°39'41 2.3
2014-Dec-18 19:31N 37°37' E 023°54'1717.6
2014-Dec-18 18:33N 37°49' E 023°38'8 8.0
2014-Dec-18 17:33N 37°56' E 023°38'0 0.4
2014-Dec-18 16:33N 37°56' E 023°37'2322.4
2014-Dec-18 15:33N 37°38' E 023°55'6 0.3
2014-Dec-17 19:29N 37°34' E 023°49'1819.0
2014-Dec-17 18:33N 37°49' E 023°37'7 6.9
2014-Dec-17 17:31N 37°56' E 023°38'0 0.0
2014-Dec-17 16:31N 37°56' E 023°38'0 0.0
2014-Dec-17 15:31N 37°56' E 023°38'0 0.0
2014-Dec-17 14:31N 37°56' E 023°38'0 0.0
2014-Dec-17 13:31N 37°56' E 023°38'0 0.0
2014-Dec-17 12:28N 37°56' E 023°38'0 0.0
2014-Dec-17 11:33N 37°56' E 023°38'0 0.0
2014-Dec-17 10:33N 37°56' E 023°38'0 0.0
2014-Dec-17 09:18N 37°56' E 023°38'0 0.0
2014-Dec-17 08:33N 37°56' E 023°38'0 0.0
2014-Dec-17 07:33N 37°56' E 023°38'0 0.0
2014-Dec-17 06:33N 37°56' E 023°38'0 0.0
2014-Dec-17 05:33N 37°56' E 023°38'7 7.5
2014-Dec-17 04:33N 37°49' E 023°41'14 0.4
2014-Dec-15 19:27N 37°38' E 023°51'1618.0
2014-Dec-15 18:33N 37°50' E 023°37'7 6.8
2014-Dec-15 17:33N 37°56' E 023°38'0 0.0
2014-Dec-15 16:33N 37°56' E 023°38'0 0.0
2014-Dec-15 15:33N 37°56' E 023°38'0 0.0
2014-Dec-15 14:33N 37°56' E 023°38'0 0.0
2014-Dec-15 13:33N 37°56' E 023°38'0 0.0
2014-Dec-15 12:33N 37°56' E 023°38'0 0.0
2014-Dec-15 11:33N 37°56' E 023°38'0 0.0
2014-Dec-15 10:33N 37°56' E 023°38'0 0.0
2014-Dec-15 09:33N 37°56' E 023°38'0 0.0
2014-Dec-15 08:33N 37°56' E 023°38'0 0.0
2014-Dec-15 07:33N 37°56' E 023°38'0 0.0
2014-Dec-15 06:33N 37°56' E 023°38'0 0.0
2014-Dec-15 05:33N 37°56' E 023°38'6 5.9
2014-Dec-15 04:34N 37°51' E 023°40'  
2014-Dec-12 19:30N 37°37' E 023°54'1617.5
2014-Dec-12 18:34N 37°48' E 023°38'8 8.1
2014-Dec-12 17:32N 37°56' E 023°38'0 0.0
2014-Dec-12 16:32N 37°56' E 023°38'1414.6
2014-Dec-12 15:34N 37°43' E 023°45'8 0.4
2014-Dec-11 19:30N 37°38' E 023°53'1617.0
2014-Dec-11 18:33N 37°49' E 023°38'8 7.9
2014-Dec-11 17:33N 37°56' E 023°38'0 0.0
2014-Dec-11 16:31N 37°56' E 023°38'1211.9
2014-Dec-11 15:33N 37°46' E 023°43'7 0.3
2014-Dec-10 19:06N 37°39' E 023°44'1119.8
2014-Dec-10 18:33N 37°48' E 023°38'8 8.0
2014-Dec-10 17:33N 37°56' E 023°38'0 0.0
2014-Dec-10 16:32N 37°56' E 023°38'0 0.0
2014-Dec-10 15:32N 37°56' E 023°38'0 0.0
2014-Dec-10 14:32N 37°56' E 023°38'0 0.0
2014-Dec-10 13:29N 37°56' E 023°38'0 0.0
2014-Dec-10 12:32N 37°56' E 023°38'0 0.0
2014-Dec-10 11:32N 37°56' E 023°38'0 0.0
2014-Dec-10 10:32N 37°56' E 023°38'0 0.0
2014-Dec-10 09:32N 37°56' E 023°38'0 0.0
2014-Dec-10 08:32N 37°56' E 023°38'0 0.0
2014-Dec-10 07:31N 37°56' E 023°38'0 0.0
2014-Dec-10 06:31N 37°56' E 023°38'0 0.0
2014-Dec-10 05:31N 37°56' E 023°38'1 1.0
2014-Dec-10 04:34N 37°56' E 023°37'2221.8
2014-Dec-10 03:33N 37°38' E 023°54'  

Dump ship's entire track history